createdAt,value
2016-03-14T00:01:37.779Z,0.5
2016-03-14T00:04:40.100Z,0.4
2016-03-14T00:07:52.311Z,0.3
2016-03-14T00:11:05.181Z,0.3
2016-03-14T00:14:16.877Z,0.3
2016-03-14T00:17:34.214Z,0.3
2016-03-14T00:20:36.783Z,0.2
2016-03-14T00:23:53.245Z,0.1
2016-03-14T00:27:01.052Z,0
2016-03-14T00:30:13.342Z,0
2016-03-14T00:33:30.662Z,-0.1
2016-03-14T00:36:37.843Z,-0.2
2016-03-14T00:39:40.147Z,-0.3
2016-03-14T00:42:50.811Z,-0.4
2016-03-14T00:46:00.807Z,-0.6
2016-03-14T00:49:10.330Z,-0.8
2016-03-14T00:52:19.994Z,-0.9
2016-03-14T00:55:33.565Z,-1
2016-03-14T00:58:35.502Z,-1.1
2016-03-14T01:01:47.200Z,-1.2
2016-03-14T01:04:56.599Z,-1.3
2016-03-14T01:08:08.642Z,-1.5
2016-03-14T01:11:20.790Z,-1.6
2016-03-14T01:14:37.641Z,-1.6
2016-03-14T01:17:39.790Z,-1.7
2016-03-14T01:20:51.798Z,-1.7
2016-03-14T01:24:03.528Z,-1.7
2016-03-14T01:27:12.364Z,-1.7
2016-03-14T01:30:21.279Z,-1.6
2016-03-14T01:33:38.224Z,-1.6
2016-03-14T01:36:40.310Z,-1.5
2016-03-14T01:39:51.553Z,-1.5
2016-03-14T01:43:00.795Z,-1.4
2016-03-14T01:46:12.696Z,-1.4
2016-03-14T01:49:22.298Z,-1.4
2016-03-14T01:52:39.290Z,-1.5
2016-03-14T01:55:41.377Z,-1.5
2016-03-14T01:58:50.229Z,-1.5
2016-03-14T02:02:02.177Z,-1.5
2016-03-14T02:05:14.404Z,-1.5
2016-03-14T02:08:30.397Z,-1.5
2016-03-14T02:11:37.498Z,-1.5
2016-03-14T02:14:39.710Z,-1.5
2016-03-14T02:17:51.686Z,-1.5
2016-03-14T02:21:03.790Z,-1.4
2016-03-14T02:24:16.065Z,-1.4
2016-03-14T02:27:31.323Z,-1.4
2016-03-14T02:30:38.565Z,-1.3
2016-03-14T02:33:40.650Z,-1.2
2016-03-14T02:36:50.800Z,-1.2
2016-03-14T02:40:00.183Z,-1.2
2016-03-14T02:43:12.319Z,-1.3
2016-03-14T02:46:21.264Z,-1.4
2016-03-14T02:49:35.362Z,-1.4
2016-03-14T02:52:37.363Z,-1.4
2016-03-14T02:55:46.212Z,-1.4
2016-03-14T02:58:56.146Z,-1.3
2016-03-14T03:02:10.338Z,-1.4
2016-03-14T03:05:21.468Z,-1.4
2016-03-14T03:08:36.257Z,-1.4
2016-03-14T03:11:38.390Z,-1.4
2016-03-14T03:14:47.616Z,-1.3
2016-03-14T03:17:58.422Z,-1.2
2016-03-14T03:21:06.010Z,-1.2
2016-03-14T03:24:20.518Z,-1.2
2016-03-14T03:27:34.339Z,-1.2
2016-03-14T03:30:36.300Z,-1.1
2016-03-14T03:33:46.574Z,-1.1
2016-03-14T03:36:58.442Z,-1.2
2016-03-14T03:40:10.061Z,-1.2
2016-03-14T03:43:20.366Z,-1.2
2016-03-14T03:46:35.671Z,-1.3
2016-03-14T03:49:38.038Z,-1.3
2016-03-14T03:52:47.641Z,-1.4
2016-03-14T03:55:56.133Z,-1.4
2016-03-14T03:59:05.519Z,-1.6
2016-03-14T04:02:15.589Z,-1.7
2016-03-14T04:05:32.597Z,-1.8
2016-03-14T04:08:34.621Z,-1.9
2016-03-14T04:11:46.411Z,-2
2016-03-14T04:14:57.980Z,-2
2016-03-14T04:18:10.196Z,-2.1
2016-03-14T04:21:22.281Z,-2.1
2016-03-14T04:24:34.555Z,-2.2
2016-03-14T04:27:46.298Z,-2.3
2016-03-14T04:30:55.024Z,-2.3
2016-03-14T04:34:07.067Z,-2.3
2016-03-14T04:37:18.933Z,-2.3
2016-03-14T04:40:36.036Z,-2.3
2016-03-14T04:43:38.215Z,-2.3
2016-03-14T04:46:50.646Z,-2.2
2016-03-14T04:50:01.512Z,-2.2
2016-03-14T04:53:13.835Z,-2.1
2016-03-14T04:56:23.562Z,-2
2016-03-14T04:59:35.664Z,-2
2016-03-14T05:02:47.485Z,-2
2016-03-14T05:05:59.665Z,-1.9
2016-03-14T05:09:08.864Z,-1.9
2016-03-14T05:12:17.933Z,-1.8
2016-03-14T05:15:31.911Z,-1.8
2016-03-14T05:18:39.090Z,-1.9
2016-03-14T05:21:41.161Z,-1.9
2016-03-14T05:24:52.528Z,-2
2016-03-14T05:28:04.240Z,-2
2016-03-14T05:31:15.000Z,-2.1
2016-03-14T05:34:23.805Z,-2.2
2016-03-14T05:37:35.736Z,-2.2
2016-03-14T05:40:46.244Z,-2.2
2016-03-14T05:43:57.736Z,-2.2
2016-03-14T05:47:09.652Z,-2.2
2016-03-14T05:50:19.551Z,-2.2
2016-03-14T05:53:39.029Z,-2.2
2016-03-14T05:56:41.240Z,-2.1
2016-03-14T05:59:53.497Z,-1.9
2016-03-14T06:03:04.787Z,-1.8
2016-03-14T06:06:14.944Z,-1.6
2016-03-14T06:09:23.436Z,-1.3
2016-03-14T06:12:35.693Z,-1.1
2016-03-14T06:15:48.124Z,-0.8
2016-03-14T06:19:00.443Z,-0.6
2016-03-14T06:22:12.314Z,-0.5
2016-03-14T06:25:22.198Z,-0.3
2016-03-14T06:28:34.548Z,-0.2
2016-03-14T06:31:46.917Z,-0.1
2016-03-14T06:34:57.644Z,0.2
2016-03-14T06:38:10.045Z,0.5
2016-03-14T06:41:18.990Z,0.8
2016-03-14T06:44:36.421Z,1.2
2016-03-14T06:47:39.521Z,3.2
2016-03-14T06:50:52.280Z,5.7
2016-03-14T06:54:05.959Z,7.4
2016-03-14T06:57:19.626Z,8.7
2016-03-14T07:00:38.214Z,9.6
2016-03-14T07:03:41.831Z,9.8
2016-03-14T07:06:55.276Z,9.7
2016-03-14T07:10:08.584Z,9.6
2016-03-14T07:13:21.748Z,9.7
2016-03-14T07:16:37.257Z,10.3
2016-03-14T07:19:40.952Z,10.5
2016-03-14T07:22:51.054Z,10.7
2016-03-14T07:26:05.015Z,11.6
2016-03-14T07:29:16.697Z,11.8
2016-03-14T07:32:34.503Z,11.2
2016-03-14T07:35:37.354Z,10.5
2016-03-14T07:38:48.191Z,10.2
2016-03-14T07:42:01.152Z,10.7
2016-03-14T07:45:12.460Z,11.3
2016-03-14T07:48:30.655Z,12.2
2016-03-14T07:51:34.710Z,13.8
2016-03-14T07:54:48.968Z,16
2016-03-14T07:58:04.085Z,18.4
2016-03-14T08:01:19.768Z,20
2016-03-14T08:04:35.839Z,21
2016-03-14T08:07:51.891Z,21.9
2016-03-14T08:11:06.617Z,19.9
2016-03-14T08:14:17.330Z,21.5
2016-03-14T08:17:35.464Z,22.5
2016-03-14T08:20:51.050Z,22.2
2016-03-14T08:24:04.527Z,21.1
2016-03-14T08:27:18.632Z,22
2016-03-14T08:30:38.858Z,23.4
2016-03-14T08:33:45.132Z,23.9
2016-03-14T08:36:57.547Z,24.2
2016-03-14T08:40:13.073Z,24
2016-03-14T08:43:32.831Z,23.4
2016-03-14T08:46:37.699Z,20.6
2016-03-14T08:49:49.785Z,18.4
2016-03-14T08:53:01.668Z,16.6
2016-03-14T08:56:16.319Z,16.6
2016-03-14T08:59:36.343Z,17.5
2016-03-14T09:02:41.960Z,18.9
2016-03-14T09:05:57.343Z,20.1
2016-03-14T09:09:09.228Z,20.7
2016-03-14T09:12:24.596Z,21.1
2016-03-14T09:15:39.964Z,21.8
2016-03-14T09:18:55.268Z,21.8
2016-03-14T09:22:09.279Z,21.2
2016-03-14T09:25:24.179Z,21
2016-03-14T09:28:39.170Z,20.6
2016-03-14T09:31:51.428Z,19.8
2016-03-14T09:35:05.390Z,18.5
2016-03-14T09:38:16.292Z,18.3
2016-03-14T09:41:37.831Z,18.3
2016-03-14T09:44:42.527Z,18.3
2016-03-14T09:47:56.456Z,18.9
2016-03-14T09:51:10.123Z,18.2
2016-03-14T09:54:24.085Z,18.7
2016-03-14T09:57:38.623Z,18
2016-03-14T10:00:41.616Z,17.5
2016-03-14T10:03:54.031Z,16
2016-03-14T10:07:05.548Z,14.5
2016-03-14T10:10:15.309Z,13.7
2016-03-14T10:13:33.005Z,13
2016-03-14T10:16:36.341Z,12.9
2016-03-14T10:19:46.177Z,12.6
2016-03-14T10:22:55.576Z,12.3
2016-03-14T10:26:06.834Z,12.2
2016-03-14T10:29:20.173Z,12.5
2016-03-14T10:32:37.712Z,12.1
2016-03-14T10:35:41.236Z,11.7
2016-03-14T10:38:54.072Z,11.2
2016-03-14T10:42:04.596Z,10.5
2016-03-14T10:45:17.075Z,10.1
2016-03-14T10:48:32.802Z,9.5
2016-03-14T10:51:36.029Z,9.1
2016-03-14T10:54:48.427Z,8.8
2016-03-14T10:57:58.279Z,8.7
2016-03-14T11:01:11.288Z,8.5
2016-03-14T11:04:23.143Z,8.4
2016-03-14T11:07:36.245Z,8.2
2016-03-14T11:10:47.487Z,8.3
2016-03-14T11:14:00.745Z,8.5
2016-03-14T11:17:14.100Z,8.7
2016-03-14T11:20:30.170Z,8.9
2016-03-14T11:23:38.368Z,9.1
2016-03-14T11:26:41.361Z,9
2016-03-14T11:29:54.150Z,9
2016-03-14T11:33:06.924Z,8.9
2016-03-14T11:36:20.373Z,8.6
2016-03-14T11:39:36.021Z,8.4
2016-03-14T11:42:38.998Z,8.3
2016-03-14T11:45:51.600Z,8.2
2016-03-14T11:49:04.248Z,8.2
2016-03-14T11:52:14.087Z,8.3
2016-03-14T11:55:30.767Z,8.5
2016-03-14T11:58:38.641Z,8.6
2016-03-14T12:01:41.527Z,8.7
2016-03-14T12:04:54.307Z,8.9
2016-03-14T12:08:06.734Z,9
2016-03-14T12:11:19.398Z,9
2016-03-14T12:14:33.984Z,8.9
2016-03-14T12:17:36.975Z,8.8
2016-03-14T12:20:47.419Z,8.8
2016-03-14T12:23:58.569Z,8.7
2016-03-14T12:27:09.654Z,8.5
2016-03-14T12:30:21.838Z,8.3
2016-03-14T12:33:38.673Z,8.2
2016-03-14T12:36:41.557Z,8.3
2016-03-14T12:39:50.550Z,8.6
2016-03-14T12:43:05.620Z,8.7
2016-03-14T12:46:18.536Z,8.7
2016-03-14T12:49:36.044Z,8.7
2016-03-14T12:52:39.130Z,8.8
2016-03-14T12:55:50.810Z,8.8
2016-03-14T12:59:03.116Z,8.8
2016-03-14T13:02:15.826Z,8.8
2016-03-14T13:05:30.509Z,8.8
2016-03-14T13:08:38.424Z,8.7
2016-03-14T13:11:41.417Z,8.7
2016-03-14T13:14:54.143Z,8.6
2016-03-14T13:18:04.261Z,8.3
2016-03-14T13:21:17.393Z,8.3
2016-03-14T13:24:34.749Z,8.4
2016-03-14T13:27:37.740Z,8.4
2016-03-14T13:30:50.357Z,8.3
2016-03-14T13:34:00.351Z,8.4
2016-03-14T13:37:13.062Z,8.4
2016-03-14T13:40:23.259Z,8.2
2016-03-14T13:43:35.659Z,7.8
2016-03-14T13:46:45.011Z,7.7
2016-03-14T13:49:55.816Z,7.6
2016-03-14T13:53:06.339Z,7.6
2016-03-14T13:56:20.568Z,7.5
2016-03-14T13:59:38.108Z,7.4
2016-03-14T14:02:40.725Z,7.4
2016-03-14T14:05:53.265Z,7.5
2016-03-14T14:09:05.433Z,7.5
2016-03-14T14:12:22.133Z,7.6
2016-03-14T14:15:35.781Z,7.7
2016-03-14T14:18:38.477Z,7.7
2016-03-14T14:21:48.032Z,7.8
2016-03-14T14:24:58.868Z,7.9
2016-03-14T14:28:10.141Z,8
2016-03-14T14:31:23.121Z,8
2016-03-14T14:34:35.442Z,8.1
2016-03-14T14:37:46.512Z,8
2016-03-14T14:40:59.426Z,7.9
2016-03-14T14:44:09.966Z,7.8
2016-03-14T14:47:20.645Z,7.9
2016-03-14T14:50:38.297Z,7.9
2016-03-14T14:53:41.274Z,8
2016-03-14T14:56:50.641Z,8
2016-03-14T15:00:05.727Z,8
2016-03-14T15:03:18.204Z,8
2016-03-14T15:06:36.278Z,8
2016-03-14T15:09:39.239Z,7.9
2016-03-14T15:12:50.622Z,7.8
2016-03-14T15:16:03.442Z,7.7
2016-03-14T15:19:15.950Z,7.7
2016-03-14T15:22:31.602Z,7.5
2016-03-14T15:25:34.500Z,7.3
2016-03-14T15:28:47.180Z,7.1
2016-03-14T15:31:59.766Z,7
2016-03-14T15:35:09.962Z,6.9
2016-03-14T15:38:22.579Z,6.8
2016-03-14T15:41:35.059Z,6.8
2016-03-14T15:44:47.801Z,6.7
2016-03-14T15:48:00.450Z,6.7
2016-03-14T15:51:10.042Z,6.6
2016-03-14T15:54:22.566Z,6.5
2016-03-14T15:57:38.529Z,6.4
2016-03-14T16:00:41.116Z,6.3
2016-03-14T16:03:53.342Z,6.2
2016-03-14T16:07:02.631Z,6.1
2016-03-14T16:10:14.859Z,6
2016-03-14T16:13:32.776Z,5.8
2016-03-14T16:16:33.845Z,5.9
2016-03-14T16:19:48.917Z,5.8
2016-03-14T16:23:01.894Z,5.7
2016-03-14T16:26:12.605Z,5.7
2016-03-14T16:29:30.193Z,5.6
2016-03-14T16:32:37.998Z,5.5
2016-03-14T16:35:40.636Z,5.5
2016-03-14T16:38:50.426Z,5.4
2016-03-14T16:42:02.808Z,5.3
2016-03-14T16:45:15.520Z,5.3
2016-03-14T16:48:33.264Z,5.2
2016-03-14T16:51:35.960Z,5.2
2016-03-14T16:54:46.640Z,5.2
2016-03-14T16:57:57.085Z,5.2
2016-03-14T17:01:09.641Z,5.2
2016-03-14T17:04:22.291Z,5.2
2016-03-14T17:07:34.990Z,5.2
2016-03-14T17:10:46.108Z,5.2
2016-03-14T17:13:55.631Z,5.2
2016-03-14T17:17:08.140Z,5.2
2016-03-14T17:20:17.461Z,5.2
2016-03-14T17:23:35.344Z,5.2
2016-03-14T17:26:37.914Z,5.2
2016-03-14T17:29:50.628Z,5.2
2016-03-14T17:33:02.902Z,5.2
2016-03-14T17:36:15.364Z,5.2
2016-03-14T17:39:32.763Z,5.2
2016-03-14T17:42:35.661Z,5.2
2016-03-14T17:45:48.360Z,5.1
2016-03-14T17:49:00.962Z,5.1
2016-03-14T17:52:11.548Z,5.1
2016-03-14T17:55:23.790Z,5.2
2016-03-14T17:58:36.157Z,5.1
2016-03-14T18:01:46.712Z,5.1
2016-03-14T18:04:56.942Z,5.1
2016-03-14T18:08:09.309Z,5.1
2016-03-14T18:11:19.708Z,5
2016-03-14T18:14:37.122Z,5
2016-03-14T18:17:39.772Z,5.1
2016-03-14T18:20:52.201Z,5
2016-03-14T18:24:04.634Z,5
2016-03-14T18:27:16.470Z,5
2016-03-14T18:30:32.166Z,5
2016-03-14T18:33:34.720Z,5
2016-03-14T18:36:46.339Z,4.9
2016-03-14T18:39:58.378Z,4.9
2016-03-14T18:43:10.622Z,4.9
2016-03-14T18:46:21.833Z,4.8
2016-03-14T18:49:36.842Z,4.8
2016-03-14T18:52:39.585Z,4.7
2016-03-14T18:55:51.890Z,4.6
2016-03-14T18:59:04.447Z,4.6
2016-03-14T19:02:14.673Z,4.6
2016-03-14T19:05:30.353Z,4.6
2016-03-14T19:08:37.815Z,4.6
2016-03-14T19:11:40.400Z,4.5
2016-03-14T19:14:52.816Z,4.6
2016-03-14T19:18:05.264Z,4.5
2016-03-14T19:21:17.663Z,4.5
2016-03-14T19:24:34.999Z,4.5
2016-03-14T19:27:37.557Z,4.5
2016-03-14T19:30:53.615Z,4.5
2016-03-14T19:33:58.717Z,4.5
2016-03-14T19:37:10.651Z,4.6
2016-03-14T19:40:23.049Z,4.6
2016-03-14T19:43:37.448Z,4.7
2016-03-14T19:46:40.096Z,4.7
2016-03-14T19:49:50.605Z,4.8
2016-03-14T19:53:02.738Z,4.8
2016-03-14T19:56:13.451Z,4.8
2016-03-14T20:02:38.343Z,4.6
2016-03-14T20:05:40.601Z,4.5
2016-03-14T20:08:50.827Z,4.5
2016-03-14T20:12:00.180Z,4.5
2016-03-14T20:15:10.628Z,4.5
2016-03-14T20:18:22.980Z,4.5
2016-03-14T20:21:38.174Z,4.5
2016-03-14T20:24:40.668Z,4.5
2016-03-14T20:27:50.098Z,4.5
2016-03-14T20:31:02.527Z,4.5
2016-03-14T20:34:14.820Z,4.5
2016-03-14T20:37:24.468Z,4.5
2016-03-14T20:40:34.914Z,4.5
2016-03-14T20:43:49.359Z,4.5
2016-03-14T20:47:01.587Z,4.4
2016-03-14T20:50:11.598Z,4.4
2016-03-14T20:53:22.262Z,4.4
2016-03-14T20:56:36.239Z,4.3
2016-03-14T20:59:38.622Z,4.3
2016-03-14T21:02:48.976Z,4.3
2016-03-14T21:06:01.334Z,4.3
2016-03-14T21:09:13.684Z,4.3
2016-03-14T21:12:23.701Z,4.2
2016-03-14T21:15:35.891Z,4.2
2016-03-14T21:18:45.897Z,4.2
2016-03-14T21:21:58.325Z,4.1
2016-03-14T21:25:04.459Z,4
2016-03-14T21:28:18.407Z,4
2016-03-14T21:31:32.572Z,4
2016-03-14T21:34:34.877Z,4
2016-03-14T21:37:45.618Z,3.9
2016-03-14T21:40:54.986Z,3.8
2016-03-14T21:44:07.416Z,3.8
2016-03-14T21:47:19.693Z,3.8
2016-03-14T21:50:37.029Z,3.7
2016-03-14T21:53:39.443Z,3.7
2016-03-14T21:56:51.717Z,3.7
2016-03-14T22:00:03.709Z,3.7
2016-03-14T22:03:15.298Z,3.7
2016-03-14T22:06:30.072Z,3.7
2016-03-14T22:09:37.346Z,3.7
2016-03-14T22:12:39.713Z,3.7
2016-03-14T22:15:51.955Z,3.7
2016-03-14T22:19:02.115Z,3.7
2016-03-14T22:22:14.091Z,3.7
2016-03-14T22:25:30.758Z,3.7
2016-03-14T22:28:38.047Z,3.7
2016-03-14T22:31:40.289Z,3.7
2016-03-14T22:34:52.594Z,3.7
2016-03-14T22:38:04.775Z,3.7
2016-03-14T22:41:17.221Z,3.7
2016-03-14T22:44:32.090Z,3.6
2016-03-14T22:47:39.365Z,3.5
2016-03-14T22:50:41.622Z,3.4
2016-03-14T22:53:53.662Z,3.4
2016-03-14T22:57:04.967Z,3.4
2016-03-14T23:00:16.881Z,3.3
2016-03-14T23:03:33.735Z,3.3
2016-03-14T23:06:35.822Z,3.2
2016-03-14T23:09:47.782Z,3.1
2016-03-14T23:12:59.838Z,3.1
2016-03-14T23:16:08.596Z,3.1
2016-03-14T23:19:22.857Z,3.1
2016-03-14T23:22:39.551Z,3.1
2016-03-14T23:25:41.560Z,3.1
2016-03-14T23:28:53.600Z,3.1
2016-03-14T23:32:05.748Z,3.1
2016-03-14T23:35:16.663Z,3.1
2016-03-14T23:38:33.423Z,3
2016-03-14T23:41:40.307Z,3
2016-03-14T23:44:42.282Z,3
2016-03-14T23:47:52.291Z,2.9
2016-03-14T23:51:03.689Z,2.9
2016-03-14T23:54:12.698Z,2.9
2016-03-14T23:57:24.880Z,2.8
